createdAt,value
2023-04-03T16:02:10.893Z,6.40
2023-04-03T16:03:46.353Z,10.60
2023-04-03T16:05:18.617Z,7.40
2023-04-03T16:06:50.661Z,9.00
2023-04-03T16:08:22.556Z,9.60
2023-04-03T16:09:54.504Z,8.00
2023-04-03T16:11:27.177Z,5.60
2023-04-03T16:12:59.115Z,7.40
2023-04-03T16:14:31.642Z,7.40
2023-04-03T16:16:03.718Z,6.60
2023-04-03T16:17:36.360Z,4.40
2023-04-03T16:19:08.489Z,7.60
2023-04-03T16:20:40.786Z,8.00
2023-04-03T16:22:12.969Z,4.40
2023-04-03T16:23:45.499Z,6.80
2023-04-03T16:25:17.480Z,6.20
2023-04-03T16:26:49.334Z,5.00
2023-04-03T16:28:21.390Z,6.00
2023-04-03T16:29:53.309Z,4.60
2023-04-03T16:31:25.448Z,7.80
2023-04-03T16:32:57.677Z,5.00
2023-04-03T16:34:31.937Z,4.20
2023-04-03T16:36:07.003Z,5.40
2023-04-03T16:37:39.932Z,6.40
2023-04-03T16:39:11.837Z,4.60
2023-04-03T16:40:44.420Z,5.40
2023-04-03T16:42:16.818Z,5.60
2023-04-03T16:43:48.967Z,3.00
2023-04-03T16:45:20.928Z,4.00
2023-04-03T16:46:52.953Z,5.40
2023-04-03T16:48:24.892Z,4.40
2023-04-03T16:49:56.947Z,4.40
2023-04-03T16:51:28.954Z,6.60
2023-04-03T16:53:00.981Z,2.40
2023-04-03T16:54:32.858Z,4.80
2023-04-03T16:56:04.837Z,3.40
2023-04-03T16:57:36.765Z,5.20
2023-04-03T16:59:08.953Z,2.00
2023-04-03T17:00:40.918Z,4.20
2023-04-03T17:02:12.865Z,6.80
2023-04-03T17:03:44.832Z,4.20
2023-04-03T17:05:16.809Z,4.00
2023-04-03T17:06:48.847Z,7.00
2023-04-03T17:08:20.717Z,3.60
2023-04-03T17:09:54.485Z,4.00
2023-04-03T17:11:26.893Z,4.40
2023-04-03T17:12:58.830Z,3.40
2023-04-03T17:14:30.810Z,5.00
2023-04-03T17:16:04.121Z,0.00
2023-04-03T17:17:36.349Z,4.00
2023-04-03T17:19:08.250Z,3.00
2023-04-03T17:20:40.186Z,4.20
2023-04-03T17:22:12.319Z,21.60
2023-04-03T17:23:45.848Z,43.80
2023-04-03T17:25:18.069Z,52.75
2023-04-03T17:26:50.003Z,60.25
2023-04-03T17:28:25.774Z,62.25
2023-04-03T17:29:58.064Z,79.50
2023-04-03T17:31:29.989Z,75.00
2023-04-03T17:33:01.858Z,93.40
2023-04-03T17:34:33.944Z,92.80
2023-04-03T17:36:06.229Z,82.25
2023-04-03T17:37:38.092Z,83.75
2023-04-03T17:39:10.041Z,103.80
2023-04-03T17:40:43.560Z,108.25
2023-04-03T17:42:16.329Z,89.00
2023-04-03T17:43:48.313Z,95.60
2023-04-03T17:45:20.550Z,100.60
2023-04-03T17:46:52.493Z,102.20
2023-04-03T17:48:26.247Z,101.20
2023-04-03T17:49:58.271Z,112.20
2023-04-03T17:51:30.396Z,108.50
2023-04-03T17:53:02.404Z,92.50
2023-04-03T17:54:34.486Z,109.25
2023-04-03T17:56:10.750Z,103.60
2023-04-03T17:57:42.693Z,104.80
2023-04-03T17:59:16.509Z,104.20
2023-04-03T18:00:48.662Z,96.00
2023-04-03T18:02:20.749Z,97.80
2023-04-03T18:03:54.069Z,102.40
2023-04-03T18:05:29.500Z,112.00
2023-04-03T18:07:01.468Z,118.75
2023-04-03T18:08:35.842Z,119.25
2023-04-03T18:10:09.250Z,117.75
2023-04-03T18:11:41.487Z,134.00
2023-04-03T18:13:14.801Z,141.25
2023-04-03T18:14:47.348Z,134.25
2023-04-03T18:16:19.318Z,139.25
2023-04-03T18:17:56.725Z,133.00
2023-04-03T18:19:30.025Z,139.00
2023-04-03T18:21:02.408Z,130.25
2023-04-03T18:22:34.253Z,137.50
2023-04-03T18:24:07.996Z,141.00
2023-04-03T18:25:39.891Z,124.50
2023-04-03T18:27:15.916Z,132.00
2023-04-03T18:28:51.454Z,136.25
2023-04-03T18:33:27.031Z,124.50
2023-04-03T18:35:00.007Z,126.75
2023-04-03T18:36:32.013Z,121.25
2023-04-03T18:38:04.819Z,119.25
2023-04-03T18:39:36.963Z,112.60
2023-04-03T18:41:09.472Z,113.25
2023-04-03T18:42:41.490Z,111.75
2023-04-03T18:44:14.714Z,111.20
2023-04-03T18:45:46.908Z,104.00
2023-04-03T18:47:19.211Z,109.00
2023-04-03T18:48:51.368Z,117.75
2023-04-03T18:50:23.378Z,122.00
2023-04-03T18:51:55.510Z,106.40
2023-04-03T18:53:27.473Z,105.00
2023-04-03T18:54:59.373Z,94.20
2023-04-03T18:56:31.435Z,88.75
2023-04-03T18:58:03.297Z,78.00
2023-04-03T18:59:35.222Z,75.75
2023-04-03T19:01:07.121Z,74.50
2023-04-03T19:02:39.443Z,60.50
2023-04-03T19:04:11.758Z,63.75
2023-04-03T19:05:43.895Z,60.00
2023-04-03T19:07:16.068Z,56.25
2023-04-03T19:08:49.526Z,52.67
2023-04-03T19:10:21.522Z,53.00
2023-04-03T19:11:53.634Z,48.80
2023-04-03T19:13:26.964Z,47.40
2023-04-03T19:14:58.897Z,47.60
2023-04-03T19:16:30.901Z,44.80
2023-04-03T19:18:02.878Z,47.20
2023-04-03T19:19:34.984Z,38.20
2023-04-03T19:21:07.100Z,36.00
2023-04-03T19:22:39.206Z,34.00
2023-04-03T19:24:11.772Z,35.60
2023-04-03T19:25:44.064Z,28.80
2023-04-03T19:27:16.168Z,26.20
2023-04-03T19:28:50.806Z,27.40
2023-04-03T19:30:23.859Z,25.40
2023-04-03T19:31:55.957Z,28.40
2023-04-03T19:33:28.088Z,25.40
2023-04-03T19:35:00.193Z,25.00
2023-04-03T19:36:34.228Z,28.20
2023-04-03T19:38:06.158Z,23.80
2023-04-03T19:39:38.645Z,21.80
2023-04-03T19:41:15.402Z,26.20
2023-04-03T19:42:47.374Z,48.40
2023-04-03T19:44:19.241Z,77.00
2023-04-03T19:45:51.293Z,75.50
2023-04-03T19:47:23.645Z,81.75
2023-04-03T19:48:55.760Z,79.75
2023-04-03T19:50:27.838Z,86.25
2023-04-03T19:51:59.908Z,91.25
2023-04-03T19:53:32.504Z,80.50
2023-04-03T19:55:04.673Z,93.00
2023-04-03T19:56:36.654Z,97.80
2023-04-03T19:58:08.556Z,103.80
2023-04-03T19:59:40.606Z,89.40
2023-04-03T20:01:12.569Z,92.20
2023-04-03T20:02:44.635Z,95.40
2023-04-03T20:04:16.705Z,98.40
2023-04-03T20:05:48.700Z,96.40
2023-04-03T20:07:20.676Z,102.00
2023-04-03T20:08:53.779Z,93.60
2023-04-03T20:10:26.044Z,95.40
2023-04-03T20:12:00.226Z,94.20
2023-04-03T20:13:33.289Z,88.60
2023-04-03T20:15:07.843Z,91.75
2023-04-03T20:16:40.325Z,88.75
2023-04-03T20:18:19.556Z,86.75
2023-04-03T20:19:51.446Z,88.75
2023-04-03T20:21:30.530Z,98.25
2023-04-03T20:23:02.471Z,99.40
2023-04-03T20:24:34.739Z,108.40
2023-04-03T20:26:13.654Z,106.00
2023-04-03T20:27:47.726Z,93.50
2023-04-03T20:29:19.779Z,103.50
2023-04-03T20:30:52.499Z,105.50
2023-04-03T20:32:24.442Z,108.60
2023-04-03T20:33:57.052Z,107.00
2023-04-03T20:35:28.961Z,104.50
2023-04-03T20:37:00.913Z,102.60
2023-04-03T20:38:32.919Z,102.80
2023-04-03T20:40:05.361Z,101.40
2023-04-03T20:41:38.742Z,95.20
2023-04-03T20:43:10.710Z,90.80
2023-04-03T20:44:46.113Z,96.80
2023-04-03T20:46:20.263Z,89.60
2023-04-03T20:47:54.210Z,93.00
2023-04-03T20:49:26.318Z,91.60
2023-04-03T20:50:58.936Z,109.00
2023-04-03T20:52:30.978Z,116.50
2023-04-03T20:54:03.283Z,113.00
2023-04-03T20:55:35.370Z,112.75
2023-04-03T20:57:07.390Z,115.25
2023-04-03T20:58:39.711Z,106.00
2023-04-03T21:00:13.933Z,108.75
2023-04-03T21:01:47.049Z,113.00
2023-04-03T21:03:19.412Z,111.50
2023-04-03T21:04:54.026Z,111.75
2023-04-03T21:07:03.742Z,114.50
2023-04-03T21:09:13.054Z,112.75
2023-04-03T21:11:23.854Z,164.75
2023-04-03T21:13:32.993Z,124.00
2023-04-03T21:15:45.367Z,119.25
2023-04-03T21:17:54.495Z,99.50
2023-04-03T21:19:26.478Z,94.25
2023-04-03T21:20:58.398Z,100.60
2023-04-03T21:22:30.460Z,97.80
2023-04-03T21:24:02.647Z,94.60
2023-04-03T21:25:34.572Z,86.25
2023-04-03T21:27:06.635Z,86.75
2023-04-03T21:28:38.677Z,84.75
2023-04-03T21:30:11.435Z,82.25
2023-04-03T21:31:54.723Z,79.25
2023-04-03T21:33:27.484Z,67.25
2023-04-03T21:34:59.596Z,76.75
2023-04-03T21:36:40.379Z,59.75
2023-04-03T21:38:12.323Z,67.00
2023-04-03T21:39:45.308Z,66.50
2023-04-03T21:41:17.262Z,65.75
2023-04-03T21:42:56.500Z,57.00
2023-04-03T21:44:28.800Z,53.50
2023-04-03T21:46:00.839Z,56.25
2023-04-03T21:47:32.892Z,57.25
2023-04-03T21:49:04.834Z,57.50
2023-04-03T21:50:37.309Z,53.75
2023-04-03T21:52:09.374Z,48.75
2023-04-03T21:53:42.110Z,49.50
2023-04-03T21:55:15.579Z,49.00
2023-04-03T21:56:51.830Z,49.00
2023-04-03T21:58:33.041Z,49.25
2023-04-03T22:00:07.782Z,45.00
2023-04-03T22:01:42.858Z,47.00
2023-04-03T22:03:24.175Z,46.80
2023-04-03T22:04:56.695Z,44.40
2023-04-03T22:06:28.725Z,47.00
2023-04-03T22:08:00.950Z,43.40
2023-04-03T22:09:32.948Z,45.20
2023-04-03T22:11:07.787Z,45.20
2023-04-03T22:12:39.658Z,42.40
2023-04-03T22:14:12.396Z,43.80
2023-04-03T22:15:47.537Z,44.20
2023-04-03T22:17:19.420Z,41.60
2023-04-03T22:18:52.963Z,40.20
2023-04-03T22:20:24.983Z,40.00
2023-04-03T22:21:57.387Z,37.40
2023-04-03T22:23:29.362Z,32.00
2023-04-03T22:25:02.231Z,36.20
2023-04-03T22:26:35.164Z,31.00
2023-04-03T22:28:07.086Z,30.80
2023-04-03T22:29:39.117Z,38.00
2023-04-03T22:31:13.640Z,45.60
2023-04-03T22:32:46.267Z,50.50
2023-04-03T22:34:18.267Z,54.00
